createdAt,value
2022-11-19T00:04:25.593Z,98191.19
2022-11-19T00:09:29.175Z,98178.16
2022-11-19T00:14:32.487Z,98181.69
2022-11-19T00:19:35.478Z,98182.50
2022-11-19T00:24:39.433Z,98181.19
2022-11-19T00:29:43.426Z,98184.22
2022-11-19T00:34:46.939Z,98178.00
2022-11-19T00:39:50.380Z,98180.28
2022-11-19T00:44:55.419Z,98183.84
2022-11-19T00:49:58.794Z,98182.28
2022-11-19T00:55:01.808Z,98173.94
2022-11-19T01:00:06.972Z,98177.22
2022-11-19T01:05:12.449Z,98180.16
2022-11-19T01:10:16.186Z,98188.50
2022-11-19T01:15:19.993Z,98181.75
2022-11-19T01:20:32.310Z,98198.94
2022-11-19T01:25:35.912Z,98189.69
2022-11-19T01:30:43.409Z,98188.56
2022-11-19T01:35:59.666Z,98183.97
2022-11-19T01:41:03.871Z,98192.66
2022-11-19T01:46:07.628Z,98198.88
2022-11-19T01:51:55.983Z,98201.56
2022-11-19T01:57:05.242Z,98206.66
2022-11-19T02:02:11.671Z,98198.97
2022-11-19T02:07:15.637Z,98201.66
2022-11-19T02:12:24.802Z,98197.84
2022-11-19T02:17:46.401Z,98202.66
2022-11-19T02:23:04.677Z,98194.53
2022-11-19T02:28:21.352Z,98201.03
2022-11-19T02:33:48.770Z,98208.31
2022-11-19T02:39:02.932Z,98208.22
2022-11-19T02:44:56.020Z,98200.53
2022-11-19T02:50:17.520Z,98208.31
2022-11-19T02:55:22.444Z,98207.41
2022-11-19T03:00:26.877Z,98222.56
2022-11-19T03:05:34.840Z,98221.16
2022-11-19T03:10:55.086Z,98221.41
2022-11-19T03:15:59.315Z,98231.88
2022-11-19T03:21:05.582Z,98247.84
2022-11-19T03:26:50.803Z,98254.75
2022-11-19T03:32:04.477Z,98254.91
2022-11-19T03:37:10.589Z,98263.84
2022-11-19T03:42:17.300Z,98261.59
2022-11-19T03:47:27.538Z,98268.88
2022-11-19T03:52:33.606Z,98275.03
2022-11-19T03:57:36.884Z,98276.81
2022-11-19T04:02:41.144Z,98280.81
2022-11-19T04:07:49.376Z,98283.50
2022-11-19T04:12:52.665Z,98293.97
2022-11-19T04:17:56.357Z,98302.66
2022-11-19T04:23:02.432Z,98302.09
2022-11-19T04:28:09.199Z,98308.53
2022-11-19T04:33:12.547Z,98313.03
2022-11-19T04:38:18.550Z,98312.41
2022-11-19T04:43:24.985Z,98316.53
2022-11-19T04:48:28.373Z,98323.81
2022-11-19T04:53:31.959Z,98330.16
2022-11-19T04:58:35.774Z,98331.06
2022-11-19T05:03:40.761Z,98337.13
2022-11-19T05:08:50.778Z,98340.75
2022-11-19T05:13:54.193Z,98349.44
2022-11-19T05:18:57.486Z,98359.72
2022-11-19T05:24:01.063Z,98354.69
2022-11-19T05:29:04.479Z,98359.72
2022-11-19T05:34:08.744Z,98361.81
2022-11-19T05:39:13.432Z,98356.91
2022-11-19T05:44:19.187Z,98366.94
2022-11-19T05:49:23.460Z,98358.59
2022-11-19T05:54:27.036Z,98369.75
2022-11-19T05:59:30.466Z,98371.09
2022-11-19T06:04:33.881Z,98388.31
2022-11-19T06:09:37.363Z,98389.31
2022-11-19T06:14:40.737Z,98397.72
2022-11-19T06:19:44.912Z,98397.34
2022-11-19T06:24:49.148Z,98399.34
2022-11-19T06:29:56.243Z,98408.88
2022-11-19T06:35:00.141Z,98401.66
2022-11-19T06:40:04.193Z,98406.16
2022-11-19T06:45:17.526Z,98422.59
2022-11-19T06:50:25.536Z,98430.94
2022-11-19T06:55:29.591Z,98441.25
2022-11-19T07:00:33.720Z,98442.41
2022-11-19T07:05:47.117Z,98441.34
2022-11-19T07:10:52.523Z,98441.88
2022-11-19T07:15:55.872Z,98437.81
2022-11-19T07:20:58.787Z,98446.22
2022-11-19T07:26:02.398Z,98444.16
2022-11-19T07:31:06.689Z,98450.97
2022-11-19T07:36:16.995Z,98451.03
2022-11-19T07:41:31.462Z,98444.59
2022-11-19T07:46:35.268Z,98456.34
2022-11-19T07:51:48.091Z,98447.53
2022-11-19T07:57:01.784Z,98454.44
2022-11-19T08:02:05.377Z,98451.00
2022-11-19T08:07:08.944Z,98446.31
2022-11-19T08:12:12.453Z,98436.88
2022-11-19T08:17:15.752Z,98434.56
2022-11-19T08:22:19.042Z,98440.91
2022-11-19T08:27:22.394Z,98430.19
2022-11-19T08:32:25.859Z,98422.16
2022-11-19T08:37:29.105Z,98423.88
2022-11-19T08:42:32.747Z,98414.97
2022-11-19T08:47:36.511Z,98419.66
2022-11-19T08:52:40.124Z,98416.16
2022-11-19T08:57:43.501Z,98406.44
2022-11-19T09:02:47.085Z,98406.72
2022-11-19T09:07:50.382Z,98408.41
2022-11-19T09:12:53.729Z,98404.59
2022-11-19T09:17:57.157Z,98405.44
2022-11-19T09:23:00.769Z,98400.25
2022-11-19T09:28:04.333Z,98392.09
2022-11-19T09:33:10.745Z,98385.81
2022-11-19T09:38:13.971Z,98383.09
2022-11-19T09:43:38.801Z,98388.00
2022-11-19T09:48:42.735Z,98384.44
2022-11-19T09:54:06.147Z,98381.19
2022-11-19T09:59:34.213Z,98382.28
2022-11-19T10:04:37.682Z,98377.38
2022-11-19T10:09:45.141Z,98376.03
2022-11-19T10:15:01.412Z,98365.94
2022-11-19T10:20:43.594Z,98365.94
2022-11-19T10:25:52.370Z,98366.75
2022-11-19T10:31:16.372Z,98364.56
2022-11-19T10:36:28.840Z,98362.66
2022-11-19T10:41:49.698Z,98364.56
2022-11-19T10:46:53.150Z,98362.63
2022-11-19T10:51:57.570Z,98358.81
2022-11-19T10:57:02.764Z,98362.63
2022-11-19T11:02:33.934Z,98350.91
2022-11-19T11:07:50.912Z,98350.03
2022-11-19T11:12:57.325Z,98347.03
2022-11-19T11:18:03.817Z,98347.31
2022-11-19T11:23:12.473Z,98355.19
2022-11-19T11:28:18.213Z,98335.81
2022-11-19T11:33:24.786Z,98346.69
2022-11-19T11:38:30.135Z,98336.09
2022-11-19T11:43:37.894Z,98339.34
2022-11-19T11:48:49.049Z,98333.88
2022-11-19T11:54:28.206Z,98331.97
2022-11-19T11:59:32.342Z,98318.63
2022-11-19T12:04:36.218Z,98323.78
2022-11-19T12:09:58.742Z,98326.25
2022-11-19T12:15:14.451Z,98327.34
2022-11-19T12:20:40.472Z,98337.44
2022-11-19T12:26:21.148Z,98330.63
2022-11-19T12:31:45.672Z,98326.56
2022-11-19T12:37:17.751Z,98334.47
2022-11-19T12:42:27.151Z,98324.41
2022-11-19T12:47:44.732Z,98333.16
2022-11-19T12:53:30.826Z,98340.50
2022-11-19T12:58:49.560Z,98338.31
2022-11-19T13:03:52.720Z,98352.25
2022-11-19T13:09:15.994Z,98347.66
2022-11-19T13:14:30.878Z,98361.31
2022-11-19T13:19:38.517Z,98360.25
2022-11-19T13:24:47.010Z,98361.06
2022-11-19T13:30:02.375Z,98368.97
2022-11-19T13:35:24.942Z,98367.25
2022-11-19T13:40:38.097Z,98374.56
2022-11-19T13:45:44.421Z,98371.25
2022-11-19T13:50:51.329Z,98380.69
2022-11-19T13:55:57.835Z,98377.91
2022-11-19T14:01:08.452Z,98380.25
2022-11-19T14:06:24.437Z,98386.97
2022-11-19T14:11:46.375Z,98381.19
2022-11-19T14:17:00.566Z,98387.88
2022-11-19T14:22:50.718Z,98391.03
2022-11-19T14:27:54.632Z,98394.25
2022-11-19T14:33:42.061Z,98394.09
2022-11-19T14:38:58.076Z,98389.09
2022-11-19T14:44:07.420Z,98396.06
2022-11-19T14:49:32.008Z,98399.47
2022-11-19T14:54:45.524Z,98404.28
2022-11-19T14:59:52.645Z,98416.16
2022-11-19T15:05:21.108Z,98419.06
2022-11-19T15:10:28.935Z,98426.88
2022-11-19T15:15:41.001Z,98426.56
2022-11-19T15:21:05.191Z,98434.38
2022-11-19T15:26:37.667Z,98439.50
2022-11-19T15:32:21.986Z,98444.34
2022-11-19T15:37:44.444Z,98440.00
2022-11-19T15:42:54.627Z,98447.00
2022-11-19T15:48:30.787Z,98454.47
2022-11-19T15:53:34.349Z,98464.50
2022-11-19T15:58:45.732Z,98464.75
2022-11-19T16:03:51.998Z,98476.34
2022-11-19T16:09:02.061Z,98480.38
2022-11-19T16:14:19.957Z,98477.91
2022-11-19T16:19:23.827Z,98487.91
2022-11-19T16:24:32.021Z,98494.63
2022-11-19T16:29:40.600Z,98495.41
2022-11-19T16:34:44.319Z,98498.94
2022-11-19T16:39:53.376Z,98500.22
2022-11-19T16:45:14.823Z,98507.81
2022-11-19T16:50:34.969Z,98511.50
2022-11-19T16:55:43.555Z,98507.06
2022-11-19T17:00:54.809Z,98504.28
2022-11-19T17:05:59.233Z,98517.00
2022-11-19T17:11:24.081Z,98523.75
2022-11-19T17:16:27.541Z,98539.41
2022-11-19T17:21:43.092Z,98540.16
2022-11-19T17:26:49.685Z,98539.25
2022-11-19T17:31:56.712Z,98542.13
2022-11-19T17:37:00.640Z,98539.41
2022-11-19T17:42:04.510Z,98544.56
2022-11-19T17:47:24.582Z,98548.09
2022-11-19T17:52:31.457Z,98546.78
2022-11-19T17:57:41.123Z,98539.97
2022-11-19T18:02:47.116Z,98546.94
2022-11-19T18:07:55.091Z,98553.69
2022-11-19T18:12:59.104Z,98550.88
2022-11-19T18:18:03.137Z,98554.56
2022-11-19T18:23:06.580Z,98567.84
2022-11-19T18:28:10.074Z,98562.06
2022-11-19T18:33:13.199Z,98562.88
2022-11-19T18:38:19.657Z,98570.38
2022-11-19T18:43:23.510Z,98571.97
2022-11-19T18:48:31.843Z,98575.25
2022-11-19T18:53:47.581Z,98586.88
2022-11-19T18:58:52.323Z,98587.69
2022-11-19T19:03:55.767Z,98589.78
2022-11-19T19:09:01.741Z,98597.00
2022-11-19T19:14:05.599Z,98595.28
2022-11-19T19:19:15.963Z,98590.50
2022-11-19T19:24:20.502Z,98589.47
2022-11-19T19:29:24.041Z,98591.84
2022-11-19T19:34:35.102Z,98595.19
2022-11-19T19:39:38.874Z,98596.88
2022-11-19T19:44:42.335Z,98589.38
2022-11-19T19:49:45.748Z,98592.44
2022-11-19T19:54:48.972Z,98589.94
2022-11-19T19:59:52.371Z,98582.34
2022-11-19T20:04:56.227Z,98581.78
2022-11-19T20:09:59.749Z,98587.88
2022-11-19T20:15:03.162Z,98596.75
2022-11-19T20:20:08.190Z,98591.03
2022-11-19T20:25:11.614Z,98596.09
2022-11-19T20:30:15.520Z,98602.84
2022-11-19T20:35:18.902Z,98600.38
2022-11-19T20:40:22.975Z,98608.47
2022-11-19T20:45:26.550Z,98607.00
2022-11-19T20:50:30.279Z,98608.34
2022-11-19T20:55:33.710Z,98611.88
2022-11-19T21:00:37.144Z,98615.56
2022-11-19T21:05:40.597Z,98618.16
2022-11-19T21:10:43.949Z,98613.47
2022-11-19T21:15:47.139Z,98615.63
2022-11-19T21:20:50.472Z,98617.25
2022-11-19T21:25:53.753Z,98615.88
2022-11-19T21:30:57.249Z,98619.03
2022-11-19T21:36:03.276Z,98612.25
2022-11-19T21:41:07.715Z,98608.38
2022-11-19T21:46:10.989Z,98607.00
2022-11-19T21:51:14.328Z,98602.66
2022-11-19T21:56:17.720Z,98602.50
2022-11-19T22:01:21.538Z,98602.81
2022-11-19T22:06:25.456Z,98591.50
2022-11-19T22:11:28.987Z,98593.72
2022-11-19T22:16:40.478Z,98598.41
2022-11-19T22:21:43.978Z,98599.31
2022-11-19T22:26:47.203Z,98597.66
2022-11-19T22:31:50.633Z,98593.81
2022-11-19T22:36:54.340Z,98578.88
2022-11-19T22:41:58.076Z,98573.69
2022-11-19T22:47:03.294Z,98579.84
2022-11-19T22:52:08.694Z,98570.31
2022-11-19T22:57:12.726Z,98567.06
2022-11-19T23:02:16.009Z,98555.66
2022-11-19T23:07:19.471Z,98558.03
2022-11-19T23:12:22.797Z,98550.88
2022-11-19T23:17:26.771Z,98557.53
2022-11-19T23:22:32.758Z,98555.28
2022-11-19T23:27:39.151Z,98558.97
2022-11-19T23:32:42.979Z,98557.31
2022-11-19T23:37:46.390Z,98548.38
2022-11-19T23:42:52.126Z,98550.28
2022-11-19T23:47:56.010Z,98565.69
2022-11-19T23:53:00.315Z,98559.13
2022-11-19T23:58:04.132Z,98566.41
